Pearlhaven, Mississippi
Current Conditions -  °F | °C
As of 9:55 AM on Thursday 27 Nov 2014 (Local Time) from K1R7 Reporting Station
Clear Clear  
Wind Chill: 42°   Ceiling: Unl
Heat Index: 46°   Visibility: 10mi
Dew Point: 32°   Wind: 8mph
Humidity: 57%   Direction: 320°NW
Pressure: 30.49"   Gusts: NA
Location:  31.5898°N, 90.4722°W
Report Text: K1R7 271555Z AUTO 32007KT 10SM CLR 08/00 A3049 RMK AO2
Loading
Personal Weather Stations






























Interactive Weather Map New forecast layout! Learn more

10-Day Weather Forecast

Advertisements
Track Severe Weather on mobile